createdAt,value
2022-11-18T00:05:22.031Z,70.67
2022-11-18T00:15:31.450Z,70.55
2022-11-18T00:25:36.634Z,70.86
2022-11-18T00:35:41.664Z,70.79
2022-11-18T00:45:46.927Z,70.73
2022-11-18T00:55:50.974Z,70.76
2022-11-18T01:05:57.272Z,70.71
2022-11-18T01:16:02.389Z,71.03
2022-11-18T01:26:10.400Z,71.39
2022-11-18T01:36:33.814Z,71.75
2022-11-18T01:46:37.143Z,72.30
2022-11-18T01:56:50.296Z,72.88
2022-11-18T02:06:58.296Z,73.43
2022-11-18T02:17:08.020Z,74.32
2022-11-18T02:27:14.157Z,74.93
2022-11-18T02:37:22.516Z,75.37
2022-11-18T02:47:29.858Z,75.57
2022-11-18T02:57:34.455Z,75.51
2022-11-18T03:07:41.110Z,75.64
2022-11-18T03:18:02.868Z,75.55
2022-11-18T03:28:24.650Z,75.39
2022-11-18T03:38:35.632Z,75.12
2022-11-18T03:48:47.782Z,74.72
2022-11-18T03:58:54.648Z,74.53
2022-11-18T04:09:08.808Z,74.28
2022-11-18T04:19:13.132Z,74.22
2022-11-18T04:29:18.205Z,73.85
2022-11-18T04:39:22.094Z,73.59
2022-11-18T04:49:26.264Z,73.26
2022-11-18T04:59:30.255Z,72.49
2022-11-18T05:09:37.097Z,72.18
2022-11-18T05:19:40.534Z,72.09
2022-11-18T05:29:45.372Z,71.54
2022-11-18T05:39:48.596Z,70.97
2022-11-18T05:49:53.601Z,70.82
2022-11-18T05:59:57.198Z,70.47
2022-11-18T06:10:05.954Z,70.48
2022-11-18T06:20:12.044Z,70.53
2022-11-18T06:30:17.812Z,70.53
2022-11-18T06:40:21.268Z,70.69
2022-11-18T06:50:24.813Z,70.81
2022-11-18T07:00:29.869Z,70.84
2022-11-18T07:10:34.207Z,70.83
2022-11-18T07:20:38.014Z,70.59
2022-11-18T07:30:43.857Z,70.14
2022-11-18T07:40:47.127Z,71.04
2022-11-18T07:50:54.589Z,72.21
2022-11-18T08:01:16.306Z,72.34
2022-11-18T08:11:22.980Z,71.30
2022-11-18T08:21:26.989Z,71.02
2022-11-18T08:31:31.168Z,71.15
2022-11-18T08:41:43.655Z,71.88
2022-11-18T08:51:47.202Z,71.44
2022-11-18T09:01:50.497Z,70.73
2022-11-18T09:11:55.096Z,70.23
2022-11-18T09:21:59.244Z,69.41
2022-11-18T09:32:02.626Z,67.69
2022-11-18T09:42:27.601Z,65.41
2022-11-18T09:52:49.718Z,63.82
2022-11-18T10:03:23.068Z,61.36
2022-11-18T10:13:53.441Z,59.99
2022-11-18T10:24:14.157Z,59.53
2022-11-18T10:34:20.369Z,58.40
2022-11-18T10:44:30.895Z,57.58
2022-11-18T10:54:36.721Z,56.58
2022-11-18T11:04:41.957Z,55.52
2022-11-18T11:15:02.241Z,55.07
2022-11-18T11:25:22.188Z,55.38
2022-11-18T11:35:43.706Z,55.64
2022-11-18T11:46:08.723Z,55.60
2022-11-18T11:56:29.918Z,55.11
2022-11-18T12:06:36.106Z,54.74
2022-11-18T12:16:54.210Z,53.88
2022-11-18T12:26:59.668Z,54.23
2022-11-18T12:37:32.501Z,55.31
2022-11-18T12:47:41.887Z,55.14
2022-11-18T12:57:46.663Z,55.44
2022-11-18T13:08:13.827Z,54.98
2022-11-18T13:18:20.483Z,54.26
2022-11-18T13:28:55.708Z,53.30
2022-11-18T13:39:05.661Z,52.87
2022-11-18T13:49:16.617Z,52.89
2022-11-18T13:59:25.544Z,53.00
2022-11-18T14:09:33.081Z,53.42
2022-11-18T14:19:38.175Z,53.57
2022-11-18T14:29:50.720Z,53.79
2022-11-18T14:39:59.899Z,54.59
2022-11-18T14:50:03.586Z,55.51
2022-11-18T15:00:08.450Z,57.94
2022-11-18T15:10:18.011Z,58.91
2022-11-18T15:20:24.683Z,59.32
2022-11-18T15:30:28.178Z,60.00
2022-11-18T15:40:31.625Z,60.62
2022-11-18T15:50:35.187Z,61.24
2022-11-18T16:00:39.218Z,62.07
2022-11-18T16:11:04.248Z,63.01
2022-11-18T16:21:09.820Z,63.58
2022-11-18T16:31:31.747Z,63.87
2022-11-18T16:41:35.869Z,64.19
2022-11-18T16:51:44.700Z,64.33
2022-11-18T17:01:50.722Z,64.79
2022-11-18T17:11:55.899Z,64.96
2022-11-18T17:22:01.264Z,65.35
2022-11-18T17:32:04.858Z,66.18
2022-11-18T17:42:14.469Z,66.65
2022-11-18T17:52:21.726Z,66.91
2022-11-18T18:02:25.086Z,67.04
2022-11-18T18:12:47.023Z,67.53
2022-11-18T18:22:54.453Z,68.00
2022-11-18T18:33:04.216Z,68.66
2022-11-18T18:43:07.744Z,69.07
2022-11-18T18:53:11.375Z,69.41
2022-11-18T19:03:17.454Z,69.51
2022-11-18T19:13:20.838Z,69.69
2022-11-18T19:23:26.098Z,69.92
2022-11-18T19:33:29.537Z,70.34
2022-11-18T19:43:33.098Z,70.54
2022-11-18T19:53:40.500Z,70.46
2022-11-18T20:03:50.317Z,70.31
2022-11-18T20:13:54.043Z,70.23
2022-11-18T20:24:03.849Z,69.96
2022-11-18T20:34:15.071Z,69.88
2022-11-18T20:44:21.508Z,69.82
2022-11-18T20:54:25.147Z,69.79
2022-11-18T21:04:28.473Z,69.82
2022-11-18T21:14:31.882Z,69.82
2022-11-18T21:24:35.689Z,69.84
2022-11-18T21:34:39.016Z,69.65
2022-11-18T21:44:42.367Z,69.63
2022-11-18T21:54:45.892Z,69.75
2022-11-18T22:04:55.159Z,69.69
2022-11-18T22:14:58.591Z,69.70
2022-11-18T22:25:02.093Z,70.21
2022-11-18T22:35:06.154Z,70.36
2022-11-18T22:45:09.889Z,70.47
2022-11-18T22:55:14.291Z,70.45
2022-11-18T23:05:19.712Z,70.31
2022-11-18T23:15:25.738Z,70.09
2022-11-18T23:25:30.255Z,69.48
2022-11-18T23:35:39.881Z,68.78
2022-11-18T23:45:46.405Z,67.90
2022-11-18T23:55:53.008Z,67.76
